LKRY weather

Rokycany
Plzeň Region, Czechia

Public forecast

Using degrees Celsius for public forecast. Weather courtesy of forecast.io.

METAR (pilot weather report)

Closest report is Plzeň-Líně Airport, 13.1 nm (24.2 km) WSW. Retrieved 2019/08/23 21:00 UTC (17 minutes ago):

LKLN 232100Z AUTO VRB02KT CAVOK 17/12 Q1025

TAF (pilot weather forecast)

Closest forecast is Václav Havel Airport Prague, 33.3 nm (61.7 km) NE. Retrieved 2019/08/23 18:04 UTC (3 hours ago):

TAF LKPR 231700Z 2318/2500 05007KT CAVOK TEMPO 2401/2407 2500 BR PROB30 TEMPO 2401/2407 BKN010 TEMPO 2412/2500 FEW047CB PROB30 TEMPO 2415/2500 08014G24KT 4000 TSRA SCT040CB